createdAt,value
2019-05-15T00:02:10.881Z,7.30
2019-05-15T00:12:13.743Z,7.30
2019-05-15T00:22:18.507Z,10.23
2019-05-15T00:32:24.042Z,5.33
2019-05-15T00:42:28.584Z,6.87
2019-05-15T00:52:35.237Z,9.93
2019-05-15T01:02:39.797Z,7.97
2019-05-15T01:12:44.275Z,4.80
2019-05-15T01:22:48.754Z,6.67
2019-05-15T01:32:53.305Z,8.10
2019-05-15T01:42:58.286Z,9.23
2019-05-15T01:53:02.870Z,9.30
2019-05-15T02:03:09.837Z,8.87
2019-05-15T02:13:13.636Z,8.77
2019-05-15T02:23:18.921Z,7.10
2019-05-15T02:33:24.420Z,8.43
2019-05-15T02:43:29.797Z,6.90
2019-05-15T02:53:34.636Z,8.88
2019-05-15T03:03:39.453Z,8.53
2019-05-15T03:13:43.969Z,6.47
2019-05-15T03:23:50.762Z,10.83
2019-05-15T03:33:55.354Z,7.03
2019-05-15T03:43:59.967Z,9.13
2019-05-15T03:54:04.670Z,7.70
2019-05-15T04:04:09.651Z,9.43
2019-05-15T04:14:15.341Z,7.10
2019-05-15T04:24:20.639Z,7.65
2019-05-15T04:34:25.106Z,6.53
2019-05-15T04:44:29.622Z,7.33
2019-05-15T04:54:34.098Z,8.00
2019-05-15T05:04:38.915Z,7.47
2019-05-15T05:14:43.658Z,7.17
2019-05-15T05:24:48.276Z,9.83
2019-05-15T05:34:53.010Z,9.17
2019-05-15T05:44:58.236Z,8.80
2019-05-15T05:55:02.874Z,9.40
2019-05-15T06:05:08.007Z,10.93
2019-05-15T06:15:13.695Z,9.73
2019-05-15T06:25:19.963Z,9.60
2019-05-15T06:35:24.893Z,8.17
2019-05-15T06:45:29.494Z,9.63
2019-05-15T07:06:38.988Z,9.83
2019-05-15T07:16:44.069Z,7.20
2019-05-15T07:26:49.159Z,7.90
2019-05-15T07:36:54.584Z,8.67
2019-05-15T07:46:59.516Z,8.00
2019-05-15T07:57:04.883Z,7.57
2019-05-15T08:07:10.598Z,6.33
2019-05-15T08:17:19.040Z,7.53
2019-05-15T08:27:23.735Z,11.97
2019-05-15T08:37:29.340Z,13.97
2019-05-15T08:47:34.705Z,19.15
2019-05-15T08:57:40.187Z,15.97
2019-05-15T09:07:45.643Z,20.83
2019-05-15T09:17:50.935Z,25.40
2019-05-15T09:27:57.966Z,21.33
2019-05-15T09:38:03.206Z,22.87
2019-05-15T09:48:11.073Z,24.43
2019-05-15T09:58:19.664Z,23.73
2019-05-15T10:08:22.953Z,21.13
2019-05-15T10:18:28.260Z,25.40
2019-05-15T10:28:33.996Z,24.10
2019-05-15T10:38:39.326Z,24.20
2019-05-15T10:48:44.337Z,24.67
2019-05-15T10:58:50.661Z,26.60
2019-05-15T11:08:55.027Z,26.90
2019-05-15T11:19:00.676Z,27.60
2019-05-15T11:29:09.413Z,30.33
2019-05-15T11:39:12.335Z,29.27
2019-05-15T11:49:18.302Z,25.37
2019-05-15T11:59:22.923Z,21.97
2019-05-15T12:09:30.482Z,24.17
2019-05-15T12:19:35.046Z,30.07
2019-05-15T12:29:40.697Z,25.03
2019-05-15T12:39:45.343Z,28.60
2019-05-15T12:59:58.121Z,27.43
2019-05-15T13:10:02.420Z,31.07
2019-05-15T13:20:09.116Z,33.47
2019-05-15T13:30:15.216Z,31.37
2019-05-15T13:40:32.833Z,36.60
2019-05-15T13:50:28.480Z,40.67
2019-05-15T14:00:33.004Z,35.30
2019-05-15T14:10:38.872Z,27.07
2019-05-15T14:20:43.502Z,28.33
2019-05-15T14:30:48.182Z,28.63
2019-05-15T14:40:52.647Z,27.60
2019-05-15T14:50:58.382Z,32.77
2019-05-15T15:01:04.755Z,39.57
2019-05-15T15:11:09.857Z,37.33
2019-05-15T15:21:14.302Z,34.57
2019-05-15T15:31:19.308Z,36.17
2019-05-15T15:41:24.873Z,36.43
2019-05-15T15:51:29.504Z,40.47
2019-05-15T16:01:34.043Z,42.10
2019-05-15T16:18:02.599Z,40.13
2019-05-15T16:28:08.875Z,46.60
2019-05-15T16:38:13.677Z,48.07
2019-05-15T16:48:18.801Z,47.57
2019-05-15T16:58:24.474Z,49.47
2019-05-15T17:08:32.061Z,40.40
2019-05-15T17:18:37.991Z,33.70
2019-05-15T17:36:18.457Z,41.03
2019-05-15T17:46:24.091Z,31.60
2019-05-15T17:56:28.683Z,33.33
2019-05-15T18:06:33.261Z,30.60
2019-05-15T18:16:38.274Z,30.43
2019-05-15T18:26:42.915Z,27.80
2019-05-15T18:36:48.519Z,31.07
2019-05-15T18:46:53.684Z,31.97
2019-05-15T18:56:58.529Z,30.60
2019-05-15T19:07:03.511Z,28.40
2019-05-15T19:17:08.511Z,28.53
2019-05-15T19:27:13.090Z,30.23
2019-05-15T19:37:18.378Z,35.63
2019-05-15T19:47:23.223Z,37.10
2019-05-15T19:57:28.128Z,30.47
2019-05-15T20:07:32.733Z,29.47
2019-05-15T20:17:38.636Z,15.70
2019-05-15T20:27:44.066Z,6.70
2019-05-15T20:37:48.663Z,6.10
2019-05-15T20:47:53.245Z,8.83
2019-05-15T20:57:58.593Z,11.70
2019-05-15T21:08:03.228Z,12.07
2019-05-15T21:18:13.930Z,13.70
2019-05-15T21:28:13.835Z,14.90
2019-05-15T21:38:21.299Z,12.70
2019-05-15T21:48:24.593Z,12.73
2019-05-15T21:58:29.306Z,11.70
2019-05-15T22:08:34.140Z,10.97
2019-05-15T22:18:38.929Z,10.70
2019-05-15T22:28:43.464Z,11.20
2019-05-15T22:38:50.366Z,10.20
2019-05-15T22:48:55.229Z,10.03
2019-05-15T22:58:59.834Z,11.07
2019-05-15T23:09:06.597Z,13.00
2019-05-15T23:19:11.241Z,11.07
2019-05-15T23:29:15.617Z,9.77
2019-05-15T23:39:20.221Z,10.85
2019-05-15T23:49:24.714Z,12.10
2019-05-15T23:59:29.152Z,9.63
